Time;durP1;ratioP1;P1;durP2;ratioP2;P2;SDS_P1;SDS_P2;PMS_P1;PMS_P2;Temp;Humidity;BMP_temperature;BMP_pressure;BME280_temperature;BME280_humidity;BME280_pressure;Samples;Min_cycle;Max_cycle;Signal;HPM_P1;HPM_P2
2023/01/04 00:00:29;;;;;;;5.72;1.27;;;;;;;16.17;48.23;101890.13;5035826;28;20064;-71
2023/01/04 00:02:54;;;;;;;5.55;0.77;;;;;;;16.19;47.23;101881.88;5053644;28;20029;-70
2023/01/04 00:05:20;;;;;;;2.17;0.80;;;;;;;16.20;47.24;101880.88;5054177;28;20515;-72
2023/01/04 00:07:45;;;;;;;1.13;0.22;;;;;;;16.23;47.17;101883.31;5053625;28;20115;-71
2023/01/04 00:10:10;;;;;;;2.50;0.52;;;;;;;16.23;48.21;101884.16;5053238;28;20041;-71
2023/01/04 00:12:36;;;;;;;1.40;0.57;;;;;;;16.24;48.12;101874.22;5053606;28;20546;-70
2023/01/04 00:15:02;;;;;;;1.02;0.60;;;;;;;16.24;47.18;101853.44;5053552;28;20114;-70
2023/01/04 00:17:27;;;;;;;8.65;0.88;;;;;;;16.26;47.44;101856.00;5053832;28;20033;-70
2023/01/04 00:19:53;;;;;;;4.57;1.05;;;;;;;16.25;47.21;101865.09;5053182;28;20037;-71
2023/01/04 00:22:18;;;;;;;8.85;0.95;;;;;;;16.25;48.65;101865.09;5053336;28;20037;-71
2023/01/04 00:24:43;;;;;;;3.53;0.60;;;;;;;16.24;47.56;101858.00;5035548;28;20037;-70
2023/01/04 00:27:09;;;;;;;4.43;0.90;;;;;;;16.23;48.19;101853.56;5036179;28;20384;-71
2023/01/04 00:29:34;;;;;;;3.70;0.75;;;;;;;16.24;47.66;101853.44;5053782;28;20040;-72
2023/01/04 00:31:59;;;;;;;5.10;0.70;;;;;;;16.22;48.08;101851.84;5049752;28;20083;-71
2023/01/04 00:34:25;;;;;;;0.75;0.60;;;;;;;16.19;48.25;101844.03;5033337;28;20042;-71
2023/01/04 00:36:50;;;;;;;2.63;0.52;;;;;;;16.17;48.68;101843.31;5015378;28;20041;-71
2023/01/04 00:39:16;;;;;;;1.20;0.75;;;;;;;16.17;47.27;101840.59;5032973;28;20454;-71
2023/01/04 00:41:45;;;;;;;9.15;0.98;;;;;;;16.16;47.33;101828.09;5033730;28;20056;-71
2023/01/04 00:44:11;;;;;;;1.23;0.47;;;;;;;16.18;48.62;101831.50;5032883;28;20151;-70
2023/01/04 00:46:37;;;;;;;3.72;1.17;;;;;;;16.12;48.37;101822.09;5032822;28;20030;-71
2023/01/04 00:49:03;;;;;;;2.05;0.57;;;;;;;16.11;47.79;101800.59;5033052;28;20087;-70
2023/01/04 00:51:29;;;;;;;2.35;0.77;;;;;;;16.10;48.41;101807.88;5033045;28;20112;-71
2023/01/04 00:53:55;;;;;;;4.28;0.55;;;;;;;16.09;48.36;101811.56;5033168;28;20167;-71
2023/01/04 00:56:21;;;;;;;2.15;0.80;;;;;;;16.07;47.77;101813.56;5033269;28;20580;-72
2023/01/04 00:58:46;;;;;;;3.83;0.70;;;;;;;16.05;48.17;101803.91;5033021;28;20103;-71
2023/01/04 01:01:11;;;;;;;6.35;0.77;;;;;;;16.03;48.23;101784.25;5032679;28;20090;-71
2023/01/04 01:03:37;;;;;;;3.83;0.60;;;;;;;16.01;49.53;101791.66;5032909;28;20049;-71
2023/01/04 01:06:04;;;;;;;2.45;0.85;;;;;;;15.98;48.58;101775.72;5033003;28;20034;-71
2023/01/04 01:08:31;;;;;;;4.97;0.73;;;;;;;15.97;49.34;101774.03;5033159;28;20033;-71
2023/01/04 01:11:03;;;;;;;1.83;0.95;;;;;;;15.95;48.95;101776.84;5015324;28;20059;-71
2023/01/04 01:13:28;;;;;;;4.43;0.70;;;;;;;15.94;48.63;101774.31;4998722;28;20429;-72
2023/01/04 01:15:54;;;;;;;5.15;0.85;;;;;;;15.93;48.17;101784.25;5015266;28;20040;-71
2023/01/04 01:18:19;;;;;;;2.35;0.30;;;;;;;15.94;48.95;101779.72;5032933;28;20044;-71
2023/01/04 01:20:45;;;;;;;2.80;0.68;;;;;;;15.94;49.79;101788.66;5033007;28;20052;-71
2023/01/04 01:23:14;;;;;;;3.75;1.08;;;;;;;15.94;49.72;101779.72;5015481;28;20390;-71
2023/01/04 01:25:40;;;;;;;2.20;0.70;;;;;;;15.95;49.75;101776.00;5014971;28;20517;-70
2023/01/04 01:28:06;;;;;;;2.58;0.50;;;;;;;15.93;49.54;101770.75;5032665;28;20476;-71
2023/01/04 01:30:32;;;;;;;1.48;0.40;;;;;;;15.94;48.69;101785.94;5015137;28;20055;-71
2023/01/04 01:32:57;;;;;;;1.27;0.60;;;;;;;15.94;49.77;101768.91;5015234;28;20036;-71
2023/01/04 01:35:22;;;;;;;2.67;0.70;;;;;;;15.92;49.06;101770.88;5033226;28;20108;-72
2023/01/04 01:37:48;;;;;;;5.82;0.73;;;;;;;15.90;49.19;101759.34;5014960;28;20090;-72
2023/01/04 01:40:13;;;;;;;3.65;0.65;;;;;;;15.88;49.78;101764.91;5032527;28;20033;-71
2023/01/04 01:42:39;;;;;;;2.58;1.23;;;;;;;15.88;50.43;101769.47;5015025;28;20029;-70
2023/01/04 01:45:29;;;;;;;3.13;1.15;;;;;;;15.86;49.16;101760.63;5032407;28;20048;-70
2023/01/04 01:48:06;;;;;;;1.13;0.50;;;;;;;15.88;49.37;101772.16;5016162;28;20017;-71
2023/01/04 01:50:39;;;;;;;1.75;0.80;;;;;;;15.91;49.24;101770.03;4998639;28;20029;-72
2023/01/04 01:53:06;;;;;;;2.13;0.45;;;;;;;15.97;50.06;101750.53;5032358;28;20084;-71
2023/01/04 01:55:33;;;;;;;2.63;0.50;;;;;;;15.98;48.86;101754.94;5034133;28;20033;-71
2023/01/04 01:57:59;;;;;;;0.43;0.35;;;;;;;16.02;50.36;101766.34;5018305;28;20053;-70
2023/01/04 02:00:24;;;;;;;1.15;0.60;;;;;;;16.03;49.70;101768.03;5018529;28;20061;-71
2023/01/04 02:03:02;;;;;;;2.35;0.68;;;;;;;16.05;49.24;101749.84;5044625;28;20032;-70
2023/01/04 02:05:28;;;;;;;0.40;0.40;;;;;;;16.08;50.22;101754.97;5038706;28;20026;-71
2023/01/04 02:07:53;;;;;;;1.52;0.30;;;;;;;16.09;50.51;101748.53;5038357;28;20443;-70
2023/01/04 02:10:19;;;;;;;1.27;0.50;;;;;;;16.12;49.39;101767.19;5056355;28;20047;-71
2023/01/04 02:12:45;;;;;;;1.65;0.50;;;;;;;16.13;49.87;101758.97;5038288;28;20033;-71
2023/01/04 02:15:10;;;;;;;0.88;0.40;;;;;;;16.15;50.71;101756.94;5055776;28;20397;-72
2023/01/04 02:17:45;;;;;;;2.65;0.30;;;;;;;16.18;50.72;101759.38;5056086;28;20495;-73
2023/01/04 02:20:20;;;;;;;1.35;0.43;;;;;;;16.22;50.58;101741.00;5038035;28;20551;-72
2023/01/04 02:23:00;;;;;;;0.20;0.20;;;;;;;16.23;50.30;101750.81;5055724;28;20041;-70
2023/01/04 02:25:40;;;;;;;1.33;0.30;;;;;;;16.22;49.41;101741.84;5021215;28;20404;-71
2023/01/04 02:28:21;;;;;;;0.40;0.30;;;;;;;16.25;50.57;101749.69;5055575;28;20036;-71
2023/01/04 02:31:32;;;;;;;6.25;0.50;;;;;;;16.25;50.00;101746.13;5055366;28;20040;-70
2023/01/04 02:34:33;;;;;;;0.88;0.30;;;;;;;16.26;49.25;101737.88;4955046;29;20062;-71
2023/01/04 02:37:08;;;;;;;4.95;0.40;;;;;;;16.26;49.90;101721.66;4952445;28;20035;-71
2023/01/04 02:40:04;;;;;;;0.38;0.38;;;;;;;16.30;50.01;101743.88;4947956;29;20044;-70
2023/01/04 02:45:29;;;;;;;1.38;0.30;;;;;;;16.32;49.90;101698.59;4922373;29;20046;-71
2023/01/04 02:50:56;;;;;;;0.40;0.38;;;;;;;16.36;49.55;101716.22;4936148;29;20586;-71
2023/01/04 02:53:27;;;;;;;1.55;0.88;;;;;;;16.40;49.49;101712.25;4935746;29;20163;-69
2023/01/04 02:56:14;;;;;;;2.35;0.30;;;;;;;16.41;50.77;101702.28;4919879;29;20036;-71
2023/01/04 02:58:39;;;;;;;2.47;0.30;;;;;;;16.42;49.68;101688.59;4935774;29;20099;-70
2023/01/04 03:07:15;;;;;;;2.03;0.52;;;;;;;16.48;50.04;101701.56;5034299;28;20041;-71
2023/01/04 03:09:43;;;;;;;1.85;0.40;;;;;;;16.50;50.31;101710.34;5032350;28;20055;-71
2023/01/04 03:12:30;;;;;;;1.02;0.15;;;;;;;16.52;50.11;101699.41;5037085;28;20033;-70
2023/01/04 03:15:11;;;;;;;0.20;0.20;;;;;;;16.52;50.32;101694.00;5020711;28;20025;-71
2023/01/04 03:17:47;;;;;;;1.10;0.28;;;;;;;16.47;50.06;101686.31;5035133;28;20061;-71
2023/01/04 03:20:15;;;;;;;0.30;0.30;;;;;;;16.46;49.28;101695.44;5036745;28;20124;-71
2023/01/04 03:37:20;;;;;;;3.85;0.20;;;;;;;16.44;50.41;101665.00;5039129;28;20064;-70
2023/01/04 03:48:36;;;;;;;2.78;0.20;;;;;;;16.47;50.05;101659.25;5039652;28;20055;-72
2023/01/04 03:51:04;;;;;;;0.40;0.20;;;;;;;16.47;50.08;101655.72;5037075;28;20040;-70
2023/01/04 03:53:33;;;;;;;0.17;0.17;;;;;;;16.47;50.46;101664.66;5036617;28;20392;-70
2023/01/04 03:55:59;;;;;;;0.10;0.10;;;;;;;16.45;49.91;101661.28;5019494;28;20029;-70
2023/01/04 03:58:25;;;;;;;0.57;0.38;;;;;;;16.46;50.81;101638.66;5053799;28;20518;-70
2023/01/04 04:00:50;;;;;;;0.10;0.10;;;;;;;16.46;50.42;101645.91;5036408;28;20116;-71
2023/01/04 04:03:16;;;;;;;1.77;0.25;;;;;;;16.47;50.19;101640.34;5019593;28;20112;-71
2023/01/04 04:08:27;;;;;;;2.97;0.20;;;;;;;16.46;50.17;101635.94;5038639;28;20043;-70
2023/01/04 04:10:53;;;;;;;0.52;0.17;;;;;;;16.46;49.98;101627.81;5035698;28;20083;-71
2023/01/04 04:13:19;;;;;;;0.43;0.30;;;;;;;16.45;50.49;101645.03;5053623;28;20029;-70
2023/01/04 04:15:44;;;;;;;0.38;0.20;;;;;;;16.46;50.89;101638.66;5053719;28;20025;-70
2023/01/04 04:18:10;;;;;;;3.53;0.65;;;;;;;16.46;50.64;101635.94;5052512;28;20556;-70
2023/01/04 04:20:35;;;;;;;0.00;0.00;;;;;;;16.46;50.30;101630.53;5035966;28;20076;-70
2023/01/04 04:23:01;;;;;;;0.50;0.30;;;;;;;16.46;50.25;101625.13;5035421;28;20041;-71
2023/01/04 04:25:26;;;;;;;3.08;0.38;;;;;;;16.48;51.41;101625.81;5053177;28;20420;-71
2023/01/04 04:27:52;;;;;;;0.25;0.20;;;;;;;16.48;51.36;101612.28;5035437;28;20539;-71
2023/01/04 04:30:17;;;;;;;1.15;0.28;;;;;;;16.50;51.48;101621.09;5053151;28;20101;-71
2023/01/04 04:32:42;;;;;;;0.85;0.40;;;;;;;16.51;51.31;101612.00;5053020;28;20052;-70
2023/01/04 04:35:08;;;;;;;0.10;0.10;;;;;;;16.52;50.04;101619.13;5053720;28;20032;-71
2023/01/04 04:37:34;;;;;;;1.92;0.30;;;;;;;16.54;50.59;101616.28;5052968;28;20047;-71
2023/01/04 04:40:00;;;;;;;2.92;0.20;;;;;;;16.55;51.08;101608.03;5052704;28;20119;-70
2023/01/04 04:42:25;;;;;;;0.15;0.15;;;;;;;16.55;51.08;101608.03;5053033;28;20575;-71
2023/01/04 04:44:51;;;;;;;0.22;0.15;;;;;;;16.54;51.30;101598.22;5052897;28;20043;-71
2023/01/04 04:47:16;;;;;;;0.05;0.05;;;;;;;16.52;50.73;101602.91;5053243;28;20017;-71
2023/01/04 04:49:42;;;;;;;0.10;0.10;;;;;;;16.52;51.36;101592.09;5052884;28;20082;-70
2023/01/04 04:52:07;;;;;;;0.10;0.10;;;;;;;16.54;50.69;101592.81;5035192;28;20400;-71
2023/01/04 04:54:33;;;;;;;0.22;0.20;;;;;;;16.54;50.28;101573.88;5052523;28;20036;-70
2023/01/04 04:56:58;;;;;;;0.20;0.20;;;;;;;16.56;50.22;101577.28;5052645;28;20037;-70
2023/01/04 04:59:23;;;;;;;2.25;0.20;;;;;;;16.58;51.69;101569.84;5053224;28;20068;-70
2023/01/04 05:01:49;;;;;;;0.52;0.10;;;;;;;16.59;51.08;101570.72;5035130;28;20056;-70
2023/01/04 05:04:18;;;;;;;0.22;0.22;;;;;;;16.58;51.69;101542.81;5052821;28;20043;-70
2023/01/04 05:06:46;;;;;;;0.30;0.20;;;;;;;16.58;50.87;101553.63;5051527;28;20029;-70
2023/01/04 05:09:14;;;;;;;0.10;0.10;;;;;;;16.60;51.34;101558.91;5052803;28;20033;-70
2023/01/04 05:14:25;;;;;;;0.10;0.10;;;;;;;16.63;51.48;101551.34;5052769;28;20124;-70
2023/01/04 05:16:51;;;;;;;1.48;0.40;;;;;;;16.65;50.50;101538.50;5052575;28;20033;-71
2023/01/04 05:19:16;;;;;;;0.28;0.28;;;;;;;16.70;51.36;101543.44;5052377;28;20373;-71
2023/01/04 05:21:42;;;;;;;0.90;0.17;;;;;;;16.71;51.56;101554.13;5052565;28;20041;-71
2023/01/04 05:24:09;;;;;;;0.20;0.15;;;;;;;16.74;50.32;101543.03;5052516;28;20461;-70
2023/01/04 05:26:35;;;;;;;0.47;0.10;;;;;;;16.73;50.76;101541.31;5035088;28;20104;-71
2023/01/04 05:29:00;;;;;;;0.60;0.43;;;;;;;16.74;51.79;101534.03;5054030;28;20123;-70
2023/01/04 05:31:26;;;;;;;0.80;0.55;;;;;;;16.74;51.40;101545.72;5039179;28;20063;-71
2023/01/04 05:33:51;;;;;;;0.80;0.30;;;;;;;16.75;50.49;101536.59;5038817;28;20029;-72
2023/01/04 05:36:16;;;;;;;0.10;0.10;;;;;;;16.77;51.04;101537.31;5056492;28;20040;-70
2023/01/04 05:38:42;;;;;;;0.15;0.15;;;;;;;16.80;51.18;101539.72;5056135;28;20412;-70
2023/01/04 05:42:23;;;;;;;0.93;0.20;;;;;;;16.83;51.61;101539.38;5038930;28;20051;-70
2023/01/04 05:43:53;;;;;;;0.30;0.05;;;;;;;16.86;51.23;101530.97;5041423;28;20036;-71
2023/01/04 05:46:18;;;;;;;0.35;0.10;;;;;;;16.88;51.42;101534.38;5056208;28;20041;-70
2023/01/04 05:48:43;;;;;;;0.20;0.20;;;;;;;16.91;51.93;101533.22;5056160;28;20036;-70
2023/01/04 05:51:09;;;;;;;0.17;0.10;;;;;;;16.94;51.54;101537.47;5056244;28;20037;-70
2023/01/04 05:53:34;;;;;;;0.10;0.10;;;;;;;16.97;52.13;101529.06;5056728;28;20029;-71
2023/01/04 05:55:59;;;;;;;2.33;0.20;;;;;;;16.98;50.96;101528.88;5038481;28;20090;-71
2023/01/04 05:58:25;;;;;;;0.00;0.00;;;;;;;17.01;51.74;101522.31;5038110;28;20508;-71
2023/01/04 06:00:50;;;;;;;1.40;0.20;;;;;;;17.02;51.91;101507.78;5056055;28;20389;-71
2023/01/04 06:03:16;;;;;;;0.10;0.10;;;;;;;17.03;51.26;101518.44;5056096;28;20116;-70
2023/01/04 06:05:41;;;;;;;0.20;0.03;;;;;;;17.03;51.12;101504.91;5039186;28;20035;-70
2023/01/04 06:08:07;;;;;;;0.30;0.20;;;;;;;17.09;51.75;101515.13;5038355;28;20033;-70
2023/01/04 06:10:32;;;;;;;0.00;0.00;;;;;;;17.10;51.74;101499.75;5055912;28;20498;-70
2023/01/04 06:12:57;;;;;;;0.43;0.20;;;;;;;17.13;50.87;101499.44;5038040;28;20032;-70
2023/01/04 06:15:23;;;;;;;0.17;0.08;;;;;;;17.15;51.52;101486.59;5055801;28;20116;-70
2023/01/04 06:17:48;;;;;;;0.75;0.20;;;;;;;17.17;51.55;101500.84;5055814;28;20040;-71
2023/01/04 06:20:14;;;;;;;0.80;0.10;;;;;;;17.18;51.70;101486.28;5056443;28;20031;-70
2023/01/04 06:22:40;;;;;;;0.00;0.00;;;;;;;17.19;51.28;101480.72;5038629;28;20044;-71
2023/01/04 06:25:07;;;;;;;0.10;0.10;;;;;;;17.20;51.08;101492.38;5055776;28;20059;-70
2023/01/04 06:27:32;;;;;;;0.17;0.10;;;;;;;17.21;51.91;101503.06;5055449;28;20025;-72
2023/01/04 06:29:57;;;;;;;1.10;0.05;;;;;;;17.22;51.02;101503.94;5055576;28;20032;-71
2023/01/04 06:32:23;;;;;;;0.77;0.20;;;;;;;17.21;52.43;101508.47;5055386;28;20094;-70
2023/01/04 06:34:48;;;;;;;0.08;0.08;;;;;;;17.20;52.13;101522.16;5055646;28;20115;-71
2023/01/04 06:37:14;;;;;;;1.45;0.30;;;;;;;17.18;51.78;101519.63;5055207;28;20037;-71
2023/01/04 06:39:39;;;;;;;0.50;0.35;;;;;;;17.19;51.04;101509.66;5055159;28;20033;-70
2023/01/04 06:42:04;;;;;;;0.20;0.20;;;;;;;17.21;51.71;101507.63;5054593;28;20104;-70
2023/01/04 06:44:30;;;;;;;2.90;0.10;;;;;;;17.23;52.12;101502.91;5037785;28;20484;-72
2023/01/04 06:46:55;;;;;;;0.22;0.20;;;;;;;17.24;51.79;101501.91;5054139;28;20433;-71
2023/01/04 06:49:20;;;;;;;0.30;0.20;;;;;;;17.25;51.70;101503.63;5037165;28;20041;-71
2023/01/04 06:51:46;;;;;;;1.48;0.20;;;;;;;17.28;51.86;101506.00;5037263;28;20090;-72
2023/01/04 06:54:11;;;;;;;0.85;0.57;;;;;;;17.30;51.83;101498.56;5037169;28;20511;-71
2023/01/04 06:56:37;;;;;;;1.98;0.20;;;;;;;17.31;52.34;101494.84;5055319;28;20079;-71
2023/01/04 06:59:03;;;;;;;1.35;0.52;;;;;;;17.33;52.25;101498.28;5054913;28;20033;-72
2023/01/04 07:01:28;;;;;;;0.63;0.20;;;;;;;17.36;50.99;101516.91;5054886;28;20037;-70
2023/01/04 07:03:53;;;;;;;2.15;0.30;;;;;;;17.39;51.38;101503.88;5036913;28;20435;-72
2023/01/04 07:06:19;;;;;;;0.63;0.30;;;;;;;17.42;52.40;101510.84;5054666;28;20048;-72
2023/01/04 07:08:44;;;;;;;0.40;0.10;;;;;;;17.42;51.66;101497.31;5037046;28;20032;-71
2023/01/04 07:11:09;;;;;;;0.95;0.30;;;;;;;17.44;51.54;101503.44;5055221;28;20502;-70
2023/01/04 07:13:35;;;;;;;2.60;0.35;;;;;;;17.46;51.61;101491.44;5054710;28;20048;-70
2023/01/04 07:16:00;;;;;;;0.40;0.30;;;;;;;17.48;51.27;101493.97;5036828;28;20059;-71
2023/01/04 07:18:26;;;;;;;1.00;0.30;;;;;;;17.48;51.23;101485.84;5036971;28;20029;-71
2023/01/04 07:20:51;;;;;;;0.75;0.38;;;;;;;17.49;51.46;101501.09;5054321;28;20388;-72
2023/01/04 07:23:16;;;;;;;0.35;0.20;;;;;;;17.49;51.50;101487.56;5054910;28;20032;-72
2023/01/04 07:25:42;;;;;;;0.25;0.25;;;;;;;17.50;52.64;101481.16;5054317;28;20408;-72
2023/01/04 07:28:07;;;;;;;0.85;0.17;;;;;;;17.50;52.72;101475.72;5054318;28;20033;-71
2023/01/04 07:30:33;;;;;;;0.30;0.15;;;;;;;17.50;52.47;101475.72;5036890;28;20025;-71
2023/01/04 07:32:58;;;;;;;0.17;0.17;;;;;;;17.51;52.11;101477.41;5054313;28;20029;-71
2023/01/04 07:35:24;;;;;;;3.25;1.48;;;;;;;17.52;52.20;101495.38;5037174;28;20028;-71
2023/01/04 07:37:49;;;;;;;0.20;0.20;;;;;;;17.55;51.82;101492.38;5054190;28;20493;-71
2023/01/04 07:40:15;;;;;;;0.20;0.20;;;;;;;17.56;51.97;101485.94;5053866;28;20475;-72
2023/01/04 07:42:40;;;;;;;1.30;0.50;;;;;;;17.56;51.66;101502.19;5054102;28;20159;-71
2023/01/04 07:45:06;;;;;;;0.80;0.20;;;;;;;17.60;51.60;101492.75;5036709;28;20032;-71
2023/01/04 07:47:32;;;;;;;0.30;0.28;;;;;;;17.60;51.24;101481.91;5036565;28;20048;-72
2023/01/04 07:49:58;;;;;;;0.68;0.20;;;;;;;17.62;51.59;101490.72;5053887;28;20512;-71
2023/01/04 07:52:24;;;;;;;0.20;0.20;;;;;;;17.60;51.72;101476.50;5053827;28;20057;-71
2023/01/04 07:54:50;;;;;;;0.20;0.20;;;;;;;17.60;52.39;101481.91;5053915;28;20188;-70
2023/01/04 07:57:15;;;;;;;0.30;0.30;;;;;;;17.62;51.79;101476.31;5053441;28;20040;-71
2023/01/04 07:59:40;;;;;;;1.92;0.32;;;;;;;17.61;52.03;101482.78;5036773;28;20119;-70
2023/01/04 08:02:06;;;;;;;0.65;0.30;;;;;;;17.60;52.10;101497.31;5019692;28;20037;-71
2023/01/04 08:04:31;;;;;;;0.52;0.30;;;;;;;17.58;52.67;101481.22;5053825;28;20140;-71
2023/01/04 08:06:57;;;;;;;1.60;0.40;;;;;;;17.56;52.80;101469.69;5053502;28;20029;-71
2023/01/04 08:09:22;;;;;;;1.23;0.50;;;;;;;17.57;52.64;101479.53;5053185;28;20035;-71
2023/01/04 08:11:47;;;;;;;3.17;0.68;;;;;;;17.58;52.58;101478.53;5035594;28;20040;-71
2023/01/04 08:14:13;;;;;;;0.52;0.52;;;;;;;17.58;52.22;101466.84;5053947;28;20499;-72
2023/01/04 08:16:40;;;;;;;5.65;0.40;;;;;;;17.61;52.41;101471.94;5053370;28;20033;-72
2023/01/04 08:19:13;;;;;;;2.00;0.22;;;;;;;17.60;52.34;101465.66;5053476;28;20033;-72
2023/01/04 08:21:39;;;;;;;0.38;0.38;;;;;;;17.61;52.06;101470.09;5053382;28;20431;-72
2023/01/04 08:24:04;;;;;;;3.00;0.73;;;;;;;17.61;52.70;101467.38;5035468;28;20116;-72
2023/01/04 08:26:31;;;;;;;0.38;0.20;;;;;;;17.63;53.09;101469.91;5035925;28;20024;-72
2023/01/04 08:28:57;;;;;;;2.55;0.40;;;;;;;17.64;53.20;101460.78;5053321;28;20029;-72
2023/01/04 08:31:28;;;;;;;1.50;1.40;;;;;;;17.65;51.86;101474.16;5035323;28;20044;-72
2023/01/04 08:33:54;;;;;;;0.43;0.35;;;;;;;17.66;52.15;101475.88;5053102;28;20039;-70
2023/01/04 08:36:33;;;;;;;2.55;0.30;;;;;;;17.66;52.06;101473.16;5035275;28;20546;-72
2023/01/04 08:39:04;;;;;;;0.15;0.15;;;;;;;17.67;52.50;101466.72;5035346;28;20053;-71
2023/01/04 08:41:30;;;;;;;1.40;0.20;;;;;;;17.71;52.00;101467.25;5054499;28;20025;-72
2023/01/04 08:43:56;;;;;;;0.30;0.20;;;;;;;17.74;52.66;101461.50;5018986;28;20111;-72
2023/01/04 08:46:21;;;;;;;0.45;0.10;;;;;;;17.79;52.30;101465.44;5035321;28;20120;-72
2023/01/04 08:48:47;;;;;;;0.45;0.45;;;;;;;17.83;52.09;101461.41;5035109;28;20095;-71
2023/01/04 08:51:14;;;;;;;0.77;0.77;;;;;;;17.88;52.65;101459.06;5035669;28;20476;-72
2023/01/04 08:53:40;;;;;;;0.43;0.30;;;;;;;17.91;51.78;101464.16;5035937;28;20025;-71
2023/01/04 08:56:06;;;;;;;0.10;0.10;;;;;;;17.95;52.25;101470.94;5035077;28;20098;-71
2023/01/04 08:58:33;;;;;;;0.43;0.20;;;;;;;17.99;52.31;101466.91;5052726;28;20526;-72
2023/01/04 09:01:00;;;;;;;0.52;0.20;;;;;;;18.02;52.94;101465.75;5052931;28;20564;-70
2023/01/04 09:03:25;;;;;;;0.70;0.30;;;;;;;18.05;52.67;101476.25;5052465;28;20029;-71
2023/01/04 09:05:50;;;;;;;0.68;0.32;;;;;;;18.07;52.90;101474.22;5052880;28;20407;-71
2023/01/04 09:08:16;;;;;;;0.40;0.40;;;;;;;18.11;52.00;101477.47;5018960;28;20021;-71
2023/01/04 09:10:41;;;;;;;1.70;0.35;;;;;;;18.14;52.04;101469.03;5035044;28;20064;-71
2023/01/04 09:13:07;;;;;;;0.10;0.10;;;;;;;18.18;52.36;101454.09;5052852;28;20041;-71
2023/01/04 09:15:33;;;;;;;0.30;0.30;;;;;;;18.24;52.18;101464.31;5052591;28;20056;-70
2023/01/04 09:17:58;;;;;;;0.40;0.20;;;;;;;18.26;52.31;101451.44;5052510;28;20037;-72
2023/01/04 09:20:23;;;;;;;0.20;0.20;;;;;;;18.28;52.54;101444.00;5018956;28;20060;-71
2023/01/04 09:22:49;;;;;;;0.35;0.08;;;;;;;18.27;52.04;101447.72;5052552;28;20041;-71
2023/01/04 09:25:14;;;;;;;1.33;0.30;;;;;;;18.28;52.09;101450.28;5052596;28;20496;-71
2023/01/04 09:27:40;;;;;;;0.65;0.10;;;;;;;18.31;52.21;101457.22;5034991;28;20025;-71
2023/01/04 09:30:06;;;;;;;0.52;0.13;;;;;;;18.32;52.06;101456.19;5052599;28;20033;-70
2023/01/04 09:32:31;;;;;;;0.30;0.30;;;;;;;18.32;52.01;101462.47;5053158;28;20037;-71
2023/01/04 09:34:57;;;;;;;0.98;0.10;;;;;;;18.33;52.42;101474.19;5035131;28;20378;-72
2023/01/04 09:37:22;;;;;;;0.43;0.10;;;;;;;18.36;52.24;101468.44;5052261;28;20033;-70
2023/01/04 09:39:48;;;;;;;1.05;0.28;;;;;;;18.36;52.54;101479.28;5034426;28;20037;-71
2023/01/04 09:42:27;;;;;;;0.80;0.32;;;;;;;18.35;52.24;101489.28;5052328;28;20036;-71
2023/01/04 09:45:00;;;;;;;1.52;0.20;;;;;;;18.31;52.26;101478.94;5052444;28;20087;-72
2023/01/04 09:47:48;;;;;;;1.23;0.22;;;;;;;18.28;52.26;101476.53;5035456;28;20384;-71
2023/01/04 09:50:32;;;;;;;1.40;0.30;;;;;;;18.27;52.75;101467.56;5037294;28;20037;-72
2023/01/04 09:53:39;;;;;;;1.65;0.28;;;;;;;18.25;52.05;101485.00;5052393;28;20086;-71
2023/01/04 09:56:14;;;;;;;2.95;0.30;;;;;;;18.22;51.91;101482.63;4990965;28;20577;-71
2023/01/04 09:58:40;;;;;;;6.47;0.30;;;;;;;18.21;52.77;101478.19;4974787;28;20093;-72
2023/01/04 10:01:10;;;;;;;1.35;0.50;;;;;;;18.19;52.46;101482.94;4974645;28;20162;-72
2023/01/04 10:03:37;;;;;;;0.77;0.50;;;;;;;18.20;51.87;101484.66;4974790;28;20046;-71
2023/01/04 10:06:05;;;;;;;1.95;0.22;;;;;;;18.21;52.56;101480.91;4974697;28;20038;-71
2023/01/04 10:08:30;;;;;;;1.52;0.38;;;;;;;18.22;51.89;101480.75;4991553;28;20544;-71
2023/01/04 10:11:00;;;;;;;1.42;0.40;;;;;;;18.22;52.21;101469.91;4974848;28;20042;-71
2023/01/04 10:14:00;;;;;;;1.45;0.73;;;;;;;18.24;52.19;101473.31;4974874;28;20039;-71
2023/01/04 10:16:41;;;;;;;0.70;0.50;;;;;;;18.23;52.80;101473.47;4976025;28;20101;-71
2023/01/04 10:19:44;;;;;;;0.32;0.30;;;;;;;18.24;52.66;101480.59;4994547;28;20046;-70
2023/01/04 10:22:24;;;;;;;4.43;1.90;;;;;;;18.24;52.26;101472.44;4994536;28;20536;-70
2023/01/04 10:25:14;;;;;;;4.22;0.90;;;;;;;18.28;52.44;101463.84;4994636;28;20034;-71
2023/01/04 10:28:07;;;;;;;0.77;0.32;;;;;;;18.31;52.71;101465.38;4994499;28;20134;-70
2023/01/04 10:30:43;;;;;;;4.28;1.40;;;;;;;18.29;52.82;101459.25;5030532;28;20041;-73
2023/01/04 10:33:21;;;;;;;2.30;0.80;;;;;;;18.25;51.96;101452.47;5055606;28;20029;-71
2023/01/04 10:35:47;;;;;;;2.10;0.60;;;;;;;18.28;52.25;101460.28;5055641;28;20583;-71
2023/01/04 10:38:19;;;;;;;1.52;0.80;;;;;;;18.31;52.58;101459.94;5055613;28;20033;-71
2023/01/04 10:40:46;;;;;;;1.33;0.57;;;;;;;18.30;53.13;101442.81;5037818;28;20076;-70
2023/01/04 10:43:17;;;;;;;0.93;0.63;;;;;;;18.33;52.13;101455.19;5055357;28;20397;-71
2023/01/04 10:46:08;;;;;;;2.70;0.50;;;;;;;18.28;53.17;101453.00;5021112;28;20526;-71
2023/01/04 10:48:47;;;;;;;2.13;0.38;;;;;;;18.28;52.79;101454.84;5055126;28;20103;-71
2023/01/04 10:51:15;;;;;;;1.75;0.60;;;;;;;18.29;53.01;101446.53;5055155;28;20033;-72
2023/01/04 10:54:00;;;;;;;2.38;0.50;;;;;;;18.32;53.19;101434.50;5055775;28;20029;-72
2023/01/04 10:56:52;;;;;;;2.05;0.50;;;;;;;18.32;53.52;101434.50;5037636;28;20048;-70
2023/01/04 10:59:22;;;;;;;1.33;0.70;;;;;;;18.35;52.52;101436.88;5038324;28;20500;-72
2023/01/04 11:02:15;;;;;;;7.15;1.30;;;;;;;18.35;52.98;101424.19;5055564;28;20040;-72
2023/01/04 11:04:55;;;;;;;3.47;1.17;;;;;;;18.32;53.01;101423.66;5036596;28;20071;-71
2023/01/04 11:07:26;;;;;;;2.78;0.45;;;;;;;18.31;53.09;101427.41;5054850;28;20448;-72
2023/01/04 11:09:56;;;;;;;9.93;1.15;;;;;;;18.32;53.11;101423.66;5037436;28;20104;-72
2023/01/04 11:12:22;;;;;;;0.80;0.40;;;;;;;18.31;53.40;101428.25;5036959;28;20071;-71
2023/01/04 11:14:49;;;;;;;3.53;0.40;;;;;;;18.32;53.30;101415.50;5037026;28;20028;-71
2023/01/04 11:17:14;;;;;;;1.52;0.40;;;;;;;18.35;53.52;101417.91;5037275;28;20096;-72
2023/01/04 11:19:40;;;;;;;0.95;0.40;;;;;;;18.36;52.67;101409.63;5037154;28;20456;-71
2023/01/04 11:22:27;;;;;;;3.08;0.50;;;;;;;18.40;52.65;101413.69;5037520;28;20119;-72
2023/01/04 11:25:00;;;;;;;2.85;0.43;;;;;;;18.40;52.93;101399.25;5056382;28;20033;-71
2023/01/04 11:27:28;;;;;;;0.45;0.28;;;;;;;18.40;53.67;101404.69;5030460;28;20040;-71
2023/01/04 11:30:03;;;;;;;0.55;0.30;;;;;;;18.39;53.10;101408.44;5000590;28;20029;-71
2023/01/04 11:32:39;;;;;;;1.08;0.40;;;;;;;18.40;53.78;101402.81;5017460;28;20021;-71
2023/01/04 11:35:04;;;;;;;1.75;0.10;;;;;;;18.40;53.07;101401.97;5017043;28;20037;-72
2023/01/04 11:37:34;;;;;;;1.10;0.50;;;;;;;18.42;53.13;101392.69;5034165;28;20093;-71
2023/01/04 11:40:19;;;;;;;0.70;0.30;;;;;;;18.44;53.41;101395.22;5016915;28;20042;-71
2023/01/04 11:43:09;;;;;;;0.73;0.38;;;;;;;18.43;53.25;101394.34;5034481;28;20045;-71
2023/01/04 11:45:35;;;;;;;0.75;0.30;;;;;;;18.42;53.56;101397.25;5016757;28;20405;-70
2023/01/04 11:48:04;;;;;;;0.32;0.20;;;;;;;18.42;53.28;101391.81;5034173;28;20018;-71
2023/01/04 11:50:39;;;;;;;2.83;0.28;;;;;;;18.41;53.69;101396.41;5001014;28;20064;-71
2023/01/04 11:53:23;;;;;;;1.65;0.50;;;;;;;18.42;53.22;101384.53;5016679;28;20040;-71
2023/01/04 11:55:48;;;;;;;1.65;0.52;;;;;;;18.42;53.18;101391.81;5016208;28;20044;-71
2023/01/04 11:58:16;;;;;;;1.08;0.32;;;;;;;18.44;53.41;101401.50;5046599;28;20037;-71
2023/01/04 12:00:54;;;;;;;0.65;0.25;;;;;;;18.45;53.51;101391.50;5054030;28;20080;-71
2023/01/04 12:03:25;;;;;;;3.17;0.50;;;;;;;18.44;53.63;101384.38;5014515;28;20044;-71
2023/01/04 12:05:51;;;;;;;0.85;0.40;;;;;;;18.42;53.23;101398.09;5033776;28;20676;-72
2023/01/04 12:08:27;;;;;;;0.32;0.32;;;;;;;18.39;53.68;101394.88;5016605;28;20036;-70
2023/01/04 12:10:52;;;;;;;1.05;0.43;;;;;;;18.36;53.59;101376.22;5051617;28;20033;-71
2023/01/04 12:13:17;;;;;;;0.30;0.10;;;;;;;18.35;53.34;101390.78;5054106;28;20032;-71